createdAt,value
2019-03-03T00:00:39.166Z,99832.70
2019-03-03T00:03:07.742Z,99836.44
2019-03-03T00:05:36.380Z,99832.20
2019-03-03T00:08:04.956Z,99832.20
2019-03-03T00:10:33.450Z,99838.98
2019-03-03T00:13:01.896Z,99834.75
2019-03-03T00:15:30.404Z,99828.86
2019-03-03T00:17:59.183Z,99829.20
2019-03-03T00:20:27.694Z,99830.46
2019-03-03T00:22:56.199Z,99826.17
2019-03-03T00:25:24.753Z,99825.28
2019-03-03T00:27:53.267Z,99818.05
2019-03-03T00:30:22.795Z,99812.53
2019-03-03T00:32:51.374Z,99817.59
2019-03-03T00:35:19.970Z,99818.00
2019-03-03T00:37:50.183Z,99817.51
2019-03-03T00:40:29.486Z,99812.48
2019-03-03T00:43:15.685Z,99822.14
2019-03-03T00:45:45.835Z,99815.77
2019-03-03T00:48:25.219Z,99815.34
2019-03-03T00:50:58.352Z,99812.95
2019-03-03T00:53:28.409Z,99826.09
2019-03-03T00:56:00.928Z,99822.61
2019-03-03T00:58:36.855Z,99819.23
2019-03-03T01:01:09.979Z,99817.09
2019-03-03T01:03:40.084Z,99816.67
2019-03-03T01:06:12.709Z,99816.23
2019-03-03T01:08:42.987Z,99810.66
2019-03-03T01:11:27.832Z,99810.22
2019-03-03T01:13:57.926Z,99812.80
2019-03-03T01:16:30.464Z,99812.41
2019-03-03T01:19:16.940Z,99812.28
2019-03-03T01:21:49.679Z,99810.22
2019-03-03T01:24:28.538Z,99804.75
2019-03-03T01:26:57.035Z,99800.84
2019-03-03T01:29:26.379Z,99808.03
2019-03-03T01:31:55.327Z,99805.91
2019-03-03T01:34:23.812Z,99808.84
2019-03-03T01:36:53.989Z,99819.39
2019-03-03T01:39:22.553Z,99824.45
2019-03-03T01:41:51.033Z,99812.89
2019-03-03T01:44:19.482Z,99822.27
2019-03-03T01:46:48.049Z,99817.99
2019-03-03T01:49:16.586Z,99821.83
2019-03-03T01:51:45.170Z,99816.67
2019-03-03T01:54:13.713Z,99811.41
2019-03-03T01:56:42.386Z,99809.72
2019-03-03T01:59:10.819Z,99791.27
2019-03-03T02:01:39.289Z,99782.34
2019-03-03T02:04:07.744Z,99777.92
2019-03-03T02:06:36.170Z,99779.01
2019-03-03T02:09:08.131Z,99777.20
2019-03-03T02:11:36.551Z,99771.16
2019-03-03T02:14:05.203Z,99767.77
2019-03-03T02:16:33.612Z,99766.10
2019-03-03T02:19:02.065Z,99767.77
2019-03-03T02:21:30.456Z,99762.66
2019-03-03T02:23:59.029Z,99766.85
2019-03-03T02:26:27.549Z,99758.30
2019-03-03T02:28:56.055Z,99758.24
2019-03-03T02:31:24.488Z,99750.25
2019-03-03T02:33:53.168Z,99745.52
2019-03-03T02:36:21.614Z,99751.44
2019-03-03T02:38:50.036Z,99740.77
2019-03-03T02:41:18.520Z,99739.47
2019-03-03T02:43:46.979Z,99732.22
2019-03-03T02:46:15.399Z,99726.94
2019-03-03T02:48:43.821Z,99712.97
2019-03-03T02:51:12.315Z,99712.11
2019-03-03T02:53:40.764Z,99708.76
2019-03-03T02:56:09.211Z,99695.00
2019-03-03T02:58:37.638Z,99691.17
2019-03-03T03:01:22.709Z,99691.23
2019-03-03T03:03:51.145Z,99678.91
2019-03-03T03:06:21.198Z,99682.35
2019-03-03T03:09:07.345Z,99672.99
2019-03-03T03:11:40.381Z,99666.61
2019-03-03T03:14:12.857Z,99664.86
2019-03-03T03:16:59.217Z,99680.06
2019-03-03T03:19:44.519Z,99660.13
2019-03-03T03:22:14.559Z,99666.90
2019-03-03T03:24:44.660Z,99665.11
2019-03-03T03:27:17.392Z,99665.08
2019-03-03T03:29:47.484Z,99655.05
2019-03-03T03:32:17.587Z,99649.53
2019-03-03T03:34:47.640Z,99651.70
2019-03-03T03:37:26.628Z,99637.23
2019-03-03T03:39:56.672Z,99633.81
2019-03-03T03:42:26.714Z,99639.37
2019-03-03T03:44:56.883Z,99627.84
2019-03-03T03:47:30.034Z,99622.61
2019-03-03T03:50:00.230Z,99606.95
2019-03-03T03:52:42.309Z,99619.34
2019-03-03T03:55:14.873Z,99604.05
2019-03-03T03:58:01.176Z,99601.02
2019-03-03T04:00:31.310Z,99599.30
2019-03-03T04:03:17.880Z,99605.55
2019-03-03T04:05:47.988Z,99593.39
2019-03-03T04:08:27.105Z,99588.73
2019-03-03T04:10:59.593Z,99591.25
2019-03-03T04:13:32.766Z,99572.21
2019-03-03T04:16:11.988Z,99586.33
2019-03-03T04:18:50.696Z,99578.77
2019-03-03T04:21:23.172Z,99580.48
2019-03-03T04:23:59.407Z,99574.52
2019-03-03T04:26:29.490Z,99570.02
2019-03-03T04:29:05.565Z,99556.38
2019-03-03T04:31:44.784Z,99546.30
2019-03-03T04:34:26.921Z,99555.17
2019-03-03T04:36:56.981Z,99551.17
2019-03-03T04:39:27.046Z,99553.80
2019-03-03T04:41:57.139Z,99555.48
2019-03-03T04:44:29.717Z,99555.08
2019-03-03T04:47:18.145Z,99558.11
2019-03-03T04:49:48.196Z,99558.20
2019-03-03T04:52:21.096Z,99559.80
2019-03-03T04:54:51.164Z,99566.09
2019-03-03T04:57:23.920Z,99552.13
2019-03-03T05:00:03.027Z,99551.94
2019-03-03T05:02:33.109Z,99554.56
2019-03-03T05:05:05.945Z,99524.73
2019-03-03T05:07:36.062Z,99549.22
2019-03-03T05:10:14.925Z,99540.95
2019-03-03T05:12:57.352Z,99540.06
2019-03-03T05:15:27.457Z,99534.92
2019-03-03T05:17:58.188Z,99539.58
2019-03-03T05:20:28.247Z,99545.45
2019-03-03T05:22:56.746Z,99550.31
2019-03-03T05:25:25.190Z,99547.72
2019-03-03T05:27:53.605Z,99552.04
2019-03-03T05:30:22.019Z,99540.89
2019-03-03T05:32:50.507Z,99539.23
2019-03-03T05:35:18.922Z,99543.92
2019-03-03T05:37:47.338Z,99533.67
2019-03-03T05:40:15.795Z,99524.45
2019-03-03T05:42:44.186Z,99521.28
2019-03-03T05:45:12.659Z,99517.77
2019-03-03T05:47:41.103Z,99511.80
2019-03-03T05:50:09.665Z,99520.73
2019-03-03T05:52:38.145Z,99510.72
2019-03-03T05:55:07.218Z,99509.75
2019-03-03T05:57:35.639Z,99510.20
2019-03-03T06:00:06.528Z,99506.52
2019-03-03T06:02:34.937Z,99509.38
2019-03-03T06:05:03.535Z,99508.79
2019-03-03T06:07:31.961Z,99507.48
2019-03-03T06:10:00.383Z,99513.72
2019-03-03T06:12:29.887Z,99509.55
2019-03-03T06:14:58.311Z,99509.03
2019-03-03T06:17:26.736Z,99514.55
2019-03-03T06:19:55.267Z,99509.03
2019-03-03T06:22:23.698Z,99510.09
2019-03-03T06:24:52.124Z,99509.27
2019-03-03T06:27:20.571Z,99510.03
2019-03-03T06:29:48.978Z,99511.83
2019-03-03T06:32:17.411Z,99509.23
2019-03-03T06:34:45.868Z,99507.38
2019-03-03T06:37:14.280Z,99512.45
2019-03-03T06:39:42.704Z,99502.67
2019-03-03T06:42:11.113Z,99505.61
2019-03-03T06:44:39.543Z,99500.16
2019-03-03T06:47:08.377Z,99500.61
2019-03-03T06:49:36.811Z,99494.91
2019-03-03T06:52:05.308Z,99491.87
2019-03-03T06:54:33.725Z,99482.75
2019-03-03T06:57:02.132Z,99483.20
2019-03-03T06:59:30.574Z,99492.59
2019-03-03T07:01:58.992Z,99490.31
2019-03-03T07:04:27.403Z,99493.59
2019-03-03T07:06:55.843Z,99493.13
2019-03-03T07:09:24.309Z,99489.27
2019-03-03T07:11:52.761Z,99486.41
2019-03-03T07:14:21.183Z,99487.54
2019-03-03T07:16:49.627Z,99484.50
2019-03-03T07:19:18.045Z,99490.40
2019-03-03T07:21:46.472Z,99489.98
2019-03-03T07:24:14.931Z,99485.10
2019-03-03T07:26:43.405Z,99479.05
2019-03-03T07:29:11.998Z,99475.91
2019-03-03T07:31:40.352Z,99479.73
2019-03-03T07:34:08.796Z,99480.53
2019-03-03T07:36:37.229Z,99473.23
2019-03-03T07:39:08.680Z,99484.63
2019-03-03T07:41:37.125Z,99483.80
2019-03-03T07:44:05.545Z,99482.44
2019-03-03T07:46:33.964Z,99488.34
2019-03-03T07:49:02.544Z,99477.25
2019-03-03T07:51:30.965Z,99470.22
2019-03-03T07:53:59.385Z,99478.83
2019-03-03T07:56:27.836Z,99485.45
2019-03-03T07:58:56.257Z,99481.02
2019-03-03T08:01:24.691Z,99476.50
2019-03-03T08:03:53.214Z,99479.55
2019-03-03T08:06:21.639Z,99479.09
2019-03-03T08:08:50.170Z,99474.73
2019-03-03T08:11:18.583Z,99481.58
2019-03-03T08:13:47.026Z,99477.78
2019-03-03T08:16:15.470Z,99484.92
2019-03-03T08:18:43.887Z,99482.75
2019-03-03T08:21:12.342Z,99473.34
2019-03-03T08:23:40.779Z,99484.28
2019-03-03T08:26:09.202Z,99481.17
2019-03-03T08:28:37.733Z,99489.97
2019-03-03T08:31:06.161Z,99491.99
2019-03-03T08:33:35.106Z,99475.67
2019-03-03T08:36:03.527Z,99484.43
2019-03-03T08:38:31.942Z,99484.16
2019-03-03T08:41:00.415Z,99478.70
2019-03-03T08:43:33.636Z,99481.35
2019-03-03T08:46:15.820Z,99481.98
2019-03-03T08:48:51.356Z,99477.44
2019-03-03T08:51:27.163Z,99473.84
2019-03-03T08:54:15.566Z,99476.63
2019-03-03T08:57:01.819Z,99479.80
2019-03-03T08:59:44.296Z,99473.31
2019-03-03T09:02:31.134Z,99486.11
2019-03-03T09:05:04.128Z,99487.40
2019-03-03T09:07:34.181Z,99489.34
2019-03-03T09:10:04.468Z,99489.84
2019-03-03T09:12:43.497Z,99487.31
2019-03-03T09:15:16.375Z,99491.56
2019-03-03T09:18:03.387Z,99489.16
2019-03-03T09:20:39.420Z,99501.78
2019-03-03T09:23:09.769Z,99498.37
2019-03-03T09:25:51.930Z,99499.31
2019-03-03T09:28:34.095Z,99506.02
2019-03-03T09:31:20.244Z,99501.13
2019-03-03T09:34:05.267Z,99511.33
2019-03-03T09:36:47.358Z,99511.44
2019-03-03T09:39:17.499Z,99508.62
2019-03-03T09:41:47.696Z,99507.03
2019-03-03T09:44:23.567Z,99516.89
2019-03-03T09:47:10.033Z,99505.76
2019-03-03T09:49:43.209Z,99510.50
2019-03-03T09:52:16.246Z,99517.27
2019-03-03T09:54:52.590Z,99511.17
2019-03-03T09:57:34.379Z,99515.99
2019-03-03T10:00:09.590Z,99515.99
2019-03-03T10:02:39.675Z,99515.35
2019-03-03T10:05:13.017Z,99514.14
2019-03-03T10:07:49.717Z,99513.84
2019-03-03T10:10:23.018Z,99517.94
2019-03-03T10:12:53.216Z,99515.72
2019-03-03T10:15:32.266Z,99527.83
2019-03-03T10:18:02.450Z,99515.36
2019-03-03T10:20:41.422Z,99528.83
2019-03-03T10:23:23.677Z,99528.38
2019-03-03T10:25:53.849Z,99517.57
2019-03-03T10:28:26.904Z,99503.74
2019-03-03T10:31:02.672Z,99515.30
2019-03-03T10:33:49.305Z,99518.53
2019-03-03T10:36:19.376Z,99511.63
2019-03-03T10:38:49.603Z,99519.02
2019-03-03T10:41:28.882Z,99514.82
2019-03-03T10:44:15.027Z,99513.87
2019-03-03T10:46:47.867Z,99505.08
2019-03-03T10:49:21.211Z,99509.66
2019-03-03T10:51:53.857Z,99508.49
2019-03-03T10:54:42.020Z,99518.91
2019-03-03T10:57:27.130Z,99497.80
2019-03-03T11:00:00.612Z,99508.49
2019-03-03T11:02:33.857Z,99500.58
2019-03-03T11:05:09.654Z,99515.36
2019-03-03T11:07:45.529Z,99519.37
2019-03-03T11:10:24.864Z,99511.19
2019-03-03T11:12:55.012Z,99512.63
2019-03-03T11:15:25.182Z,99509.53
2019-03-03T11:18:04.205Z,99505.28
2019-03-03T11:20:52.988Z,99506.11
2019-03-03T11:23:25.985Z,99509.00
2019-03-03T11:26:12.120Z,99508.70
2019-03-03T11:28:45.046Z,99516.51
2019-03-03T11:31:31.307Z,99515.88
2019-03-03T11:34:03.829Z,99512.77
2019-03-03T11:36:36.899Z,99503.02
2019-03-03T11:39:18.232Z,99504.89
2019-03-03T11:41:53.999Z,99507.33
2019-03-03T11:44:29.801Z,99505.19
2019-03-03T11:47:08.731Z,99504.44
2019-03-03T11:49:38.794Z,99493.56
2019-03-03T11:52:20.847Z,99494.47
2019-03-03T11:54:51.649Z,99495.14
2019-03-03T11:57:24.829Z,99481.88
2019-03-03T12:00:10.017Z,99487.55
2019-03-03T12:02:56.718Z,99492.67
2019-03-03T12:05:44.918Z,99474.39
2019-03-03T12:08:15.142Z,99486.84
2019-03-03T12:10:47.960Z,99470.22
2019-03-03T12:13:21.236Z,99471.83
2019-03-03T12:15:54.146Z,99472.28
2019-03-03T12:18:30.100Z,99475.33
2019-03-03T12:21:03.969Z,99463.67
2019-03-03T12:23:40.165Z,99464.05
2019-03-03T12:26:16.385Z,99464.34
2019-03-03T12:29:04.253Z,99463.67
2019-03-03T12:31:37.091Z,99460.70
2019-03-03T12:34:10.067Z,99460.20
2019-03-03T12:36:40.200Z,99453.59
2019-03-03T12:39:11.483Z,99448.03
2019-03-03T12:41:57.745Z,99448.14
2019-03-03T12:44:39.640Z,99452.35
2019-03-03T12:47:18.813Z,99450.58
2019-03-03T12:50:00.899Z,99442.50
2019-03-03T12:52:30.998Z,99434.63
2019-03-03T12:55:01.070Z,99436.32
2019-03-03T12:57:31.320Z,99433.56
2019-03-03T13:00:13.610Z,99423.48
2019-03-03T13:02:49.401Z,99438.34
2019-03-03T13:05:20.024Z,99423.42
2019-03-03T13:07:50.092Z,99411.38
2019-03-03T13:10:38.235Z,99417.81
2019-03-03T13:13:24.828Z,99413.97
2019-03-03T13:16:04.058Z,99403.94
2019-03-03T13:18:38.335Z,99403.86
2019-03-03T13:21:15.460Z,99401.30
2019-03-03T13:23:51.285Z,99399.98
2019-03-03T13:26:23.887Z,99396.48
2019-03-03T13:28:53.980Z,99397.27
2019-03-03T13:31:26.802Z,99390.91
2019-03-03T13:34:02.333Z,99392.97
2019-03-03T13:36:35.201Z,99397.30
2019-03-03T13:39:06.831Z,99394.59
2019-03-03T13:41:39.737Z,99388.19
2019-03-03T13:44:08.332Z,99389.13
2019-03-03T13:46:36.741Z,99381.91
2019-03-03T13:49:05.358Z,99385.75
2019-03-03T13:51:34.109Z,99387.56
2019-03-03T13:54:03.130Z,99387.11
2019-03-03T13:56:31.584Z,99381.55
2019-03-03T13:59:00.241Z,99384.27
2019-03-03T14:01:29.362Z,99387.88
2019-03-03T14:04:01.835Z,99380.20
2019-03-03T14:06:30.705Z,99374.23
2019-03-03T14:08:59.386Z,99371.67
2019-03-03T14:11:32.112Z,99369.53
2019-03-03T14:14:01.597Z,99370.85
2019-03-03T14:16:31.055Z,99360.90
2019-03-03T14:18:59.467Z,99360.13
2019-03-03T14:21:28.551Z,99360.28
2019-03-03T14:23:57.354Z,99359.67
2019-03-03T14:26:25.843Z,99346.84
2019-03-03T14:28:55.326Z,99344.20
2019-03-03T14:31:23.956Z,99343.75
2019-03-03T14:33:52.421Z,99335.12
2019-03-03T14:36:21.355Z,99338.84
2019-03-03T14:38:49.889Z,99326.91
2019-03-03T14:41:18.461Z,99327.28
2019-03-03T14:43:48.387Z,99332.69
2019-03-03T14:46:17.479Z,99322.74
2019-03-03T14:48:46.125Z,99328.23
2019-03-03T14:51:14.554Z,99321.98
2019-03-03T14:53:43.542Z,99310.02
2019-03-03T14:56:12.079Z,99311.00
2019-03-03T14:58:40.484Z,99308.40
2019-03-03T15:01:09.732Z,99311.91
2019-03-03T15:03:38.357Z,99317.35
2019-03-03T15:06:07.128Z,99305.47
2019-03-03T15:08:35.621Z,99306.62
2019-03-03T15:11:04.118Z,99303.16
2019-03-03T15:13:32.671Z,99300.59
2019-03-03T15:16:01.176Z,99303.94
2019-03-03T15:18:29.955Z,99302.28
2019-03-03T15:20:58.488Z,99305.99
2019-03-03T15:23:27.062Z,99292.50
2019-03-03T15:25:55.928Z,99295.60
2019-03-03T15:28:24.397Z,99296.05
2019-03-03T15:30:52.918Z,99294.32
2019-03-03T15:33:21.366Z,99299.56
2019-03-03T15:35:49.797Z,99292.44
2019-03-03T15:38:18.291Z,99291.98
2019-03-03T15:40:46.801Z,99290.05
2019-03-03T15:43:15.220Z,99285.48
2019-03-03T15:45:43.995Z,99286.38
2019-03-03T15:48:12.497Z,99288.20
2019-03-03T15:50:40.915Z,99276.41
2019-03-03T15:53:09.444Z,99283.59
2019-03-03T15:55:37.877Z,99273.56
2019-03-03T15:58:06.556Z,99276.63
2019-03-03T16:00:40.754Z,99277.03
2019-03-03T16:03:09.306Z,99274.89
2019-03-03T16:05:37.793Z,99273.48
2019-03-03T16:08:06.666Z,99269.28
2019-03-03T16:10:35.094Z,99267.17
2019-03-03T16:13:03.994Z,99267.63
2019-03-03T16:15:32.666Z,99265.94
2019-03-03T16:18:01.071Z,99259.83
2019-03-03T16:20:29.535Z,99260.28
2019-03-03T16:22:58.022Z,99256.44
2019-03-03T16:25:27.494Z,99255.90
2019-03-03T16:27:55.952Z,99248.77
2019-03-03T16:30:25.511Z,99250.78
2019-03-03T16:32:55.630Z,99241.00
2019-03-03T16:35:24.103Z,99233.16
2019-03-03T16:37:52.967Z,99234.53
2019-03-03T16:40:25.502Z,99238.19
2019-03-03T16:42:53.985Z,99233.58
2019-03-03T16:45:22.751Z,99232.30
2019-03-03T16:47:51.243Z,99237.16
2019-03-03T16:50:21.780Z,99229.31
2019-03-03T16:52:50.447Z,99221.64
2019-03-03T16:55:20.485Z,99222.34
2019-03-03T16:57:49.013Z,99216.17
2019-03-03T17:00:20.329Z,99218.22
2019-03-03T17:02:49.352Z,99213.19
2019-03-03T17:05:22.777Z,99207.99
2019-03-03T17:07:51.576Z,99212.73
2019-03-03T17:10:20.069Z,99205.01
2019-03-03T17:12:48.747Z,99205.34
2019-03-03T17:15:20.175Z,99202.65
2019-03-03T17:17:48.628Z,99194.20
2019-03-03T17:20:17.155Z,99186.52
2019-03-03T17:22:45.564Z,99189.94
2019-03-03T17:25:16.650Z,99191.54
2019-03-03T17:27:45.180Z,99189.80
2019-03-03T17:30:16.137Z,99195.02
2019-03-03T17:32:44.655Z,99196.98
2019-03-03T17:35:13.248Z,99191.26
2019-03-03T17:37:41.683Z,99187.42
2019-03-03T17:40:16.234Z,99189.55
2019-03-03T17:42:45.121Z,99180.08
2019-03-03T17:45:16.335Z,99186.19
2019-03-03T17:47:44.801Z,99186.75
2019-03-03T17:50:16.093Z,99179.45
2019-03-03T17:52:45.391Z,99180.56
2019-03-03T17:55:15.871Z,99174.42
2019-03-03T17:57:45.153Z,99178.58
2019-03-03T18:00:27.059Z,99158.19
2019-03-03T18:02:55.627Z,99178.83
2019-03-03T18:05:24.085Z,99180.37
2019-03-03T18:07:52.631Z,99173.76
2019-03-03T18:10:21.164Z,99182.69
2019-03-03T18:12:49.735Z,99177.30
2019-03-03T18:15:18.778Z,99168.89
2019-03-03T18:17:47.370Z,99167.89
2019-03-03T18:20:23.272Z,99169.55
2019-03-03T18:22:51.715Z,99166.09
2019-03-03T18:25:22.087Z,99156.16
2019-03-03T18:27:50.584Z,99150.70
2019-03-03T18:30:24.381Z,99143.09
2019-03-03T18:32:52.868Z,99145.20
2019-03-03T18:35:21.622Z,99143.02
2019-03-03T18:37:50.419Z,99134.31
2019-03-03T18:40:21.512Z,99130.37
2019-03-03T18:42:50.335Z,99123.76
2019-03-03T18:45:20.440Z,99119.91
2019-03-03T18:47:49.228Z,99120.69
2019-03-03T18:50:25.668Z,99112.03
2019-03-03T18:52:54.112Z,99111.02
2019-03-03T18:55:22.678Z,99106.88
2019-03-03T18:57:51.125Z,99098.47
2019-03-03T19:00:25.048Z,99095.86
2019-03-03T19:02:53.935Z,99100.02
2019-03-03T19:05:22.568Z,99095.52
2019-03-03T19:07:51.053Z,99097.93
2019-03-03T19:10:27.735Z,99092.23
2019-03-03T19:12:56.218Z,99088.77
2019-03-03T19:15:24.735Z,99083.20
2019-03-03T19:17:53.222Z,99080.27
2019-03-03T19:20:22.488Z,99084.34
2019-03-03T19:22:51.584Z,99077.81
2019-03-03T19:25:20.397Z,99077.17
2019-03-03T19:27:48.884Z,99083.06
2019-03-03T19:30:22.250Z,99078.91
2019-03-03T19:33:12.054Z,99081.28
2019-03-03T19:35:40.489Z,99083.48
2019-03-03T19:38:08.950Z,99085.17
2019-03-03T19:40:37.443Z,99078.72
2019-03-03T19:43:06.056Z,99072.75
2019-03-03T19:45:43.244Z,99075.25
2019-03-03T19:48:11.767Z,99062.97
2019-03-03T19:50:40.274Z,99059.80
2019-03-03T19:53:08.810Z,99046.09
2019-03-03T19:55:37.385Z,99044.95
2019-03-03T19:58:07.510Z,99039.75
2019-03-03T20:00:39.317Z,99024.73
2019-03-03T20:03:09.774Z,99035.34
2019-03-03T20:05:38.347Z,99032.47
2019-03-03T20:08:10.459Z,99024.02
2019-03-03T20:10:39.027Z,99019.73
2019-03-03T20:13:07.451Z,99022.48
2019-03-03T20:15:36.900Z,99015.58
2019-03-03T20:18:08.141Z,99011.42
2019-03-03T20:20:39.840Z,99008.55
2019-03-03T20:23:08.432Z,99008.28
2019-03-03T20:25:37.085Z,99009.87
2019-03-03T20:28:05.695Z,99000.52
2019-03-03T20:30:34.639Z,99005.98
2019-03-03T20:33:03.077Z,98998.37
2019-03-03T20:35:31.572Z,99003.27
2019-03-03T20:38:00.109Z,99006.55
2019-03-03T20:40:30.832Z,98998.42
2019-03-03T20:42:59.384Z,98994.98
2019-03-03T20:45:29.948Z,98991.46
2019-03-03T20:47:58.511Z,98983.02
2019-03-03T20:50:27.569Z,98980.63
2019-03-03T20:52:56.086Z,98979.23
2019-03-03T20:55:31.975Z,98970.22
2019-03-03T20:58:00.418Z,98970.02
2019-03-03T21:00:32.952Z,98953.44
2019-03-03T21:03:01.425Z,98953.95
2019-03-03T21:05:30.043Z,98948.22
2019-03-03T21:07:58.647Z,98945.25
2019-03-03T21:10:29.351Z,98946.17
2019-03-03T21:12:57.848Z,98931.84
2019-03-03T21:15:26.343Z,98933.75
2019-03-03T21:17:54.781Z,98934.91
2019-03-03T21:20:24.864Z,98929.28
2019-03-03T21:22:53.617Z,98935.41
2019-03-03T21:25:22.202Z,98933.87
2019-03-03T21:27:50.766Z,98925.70
2019-03-03T21:30:24.327Z,98932.86
2019-03-03T21:32:53.284Z,98927.69
2019-03-03T21:35:21.826Z,98927.88
2019-03-03T21:37:51.083Z,98916.88
2019-03-03T21:40:24.007Z,98919.81
2019-03-03T21:42:52.621Z,98897.30
2019-03-03T21:45:25.736Z,98898.33
2019-03-03T21:47:54.984Z,98906.31
2019-03-03T21:50:25.125Z,98912.52
2019-03-03T21:52:53.696Z,98906.43
2019-03-03T21:55:22.208Z,98885.34
2019-03-03T21:57:50.829Z,98894.86
2019-03-03T22:00:31.031Z,98892.55
2019-03-03T22:02:59.516Z,98885.02
2019-03-03T22:05:27.994Z,98885.28
2019-03-03T22:07:56.436Z,98887.02
2019-03-03T22:10:32.046Z,98879.91
2019-03-03T22:13:02.422Z,98881.50
2019-03-03T22:15:30.935Z,98884.00
2019-03-03T22:18:01.671Z,98860.02
2019-03-03T22:20:30.205Z,98858.67
2019-03-03T22:22:58.849Z,98854.02
2019-03-03T22:25:29.022Z,98845.88
2019-03-03T22:27:57.458Z,98852.14
2019-03-03T22:30:25.891Z,98852.90
2019-03-03T22:32:54.380Z,98850.94
2019-03-03T22:35:22.825Z,98852.90
2019-03-03T22:37:51.823Z,98859.61
2019-03-03T22:40:24.417Z,98862.11
2019-03-03T22:42:52.889Z,98847.00
2019-03-03T22:45:22.162Z,98826.27
2019-03-03T22:47:50.647Z,98829.59
2019-03-03T22:50:22.426Z,98829.84
2019-03-03T22:52:50.950Z,98828.08
2019-03-03T22:55:22.491Z,98834.69
2019-03-03T22:57:50.895Z,98826.73
2019-03-03T23:00:44.584Z,98822.44
2019-03-03T23:03:16.080Z,98808.12
2019-03-03T23:05:53.393Z,98820.09
2019-03-03T23:08:24.880Z,98814.21
2019-03-03T23:11:02.275Z,98809.95
2019-03-03T23:13:39.595Z,98798.37
2019-03-03T23:16:14.120Z,98797.39
2019-03-03T23:18:51.277Z,98788.70
2019-03-03T23:21:31.928Z,98797.84
2019-03-03T23:24:27.213Z,98793.31
2019-03-03T23:26:55.658Z,98791.66
2019-03-03T23:29:24.077Z,98786.36
2019-03-03T23:31:52.518Z,98781.78
2019-03-03T23:34:21.040Z,98770.75
2019-03-03T23:36:49.544Z,98775.23
2019-03-03T23:39:17.949Z,98757.98
2019-03-03T23:41:46.373Z,98762.62
2019-03-03T23:44:14.829Z,98759.03
2019-03-03T23:46:43.255Z,98744.13
2019-03-03T23:49:11.690Z,98764.36
2019-03-03T23:51:40.223Z,98749.19
2019-03-03T23:54:08.725Z,98751.34
2019-03-03T23:56:37.169Z,98728.83
2019-03-03T23:59:05.612Z,98731.79
